sensor_id;sensor_type;location;lat;lon;timestamp;pressure;altitude;pressure_sealevel;temperature;humidity
57086;BME280;42964;42.910;23.792;2023-02-13T00:04:07;99542.53;;;0.46;74.54
57086;BME280;42964;42.910;23.792;2023-02-13T00:09:06;99533.78;;;0.42;74.35
57086;BME280;42964;42.910;23.792;2023-02-13T00:14:08;99527.66;;;0.40;74.17
57086;BME280;42964;42.910;23.792;2023-02-13T00:19:07;99559.94;;;0.52;74.04
57086;BME280;42964;42.910;23.792;2023-02-13T00:24:06;99553.00;;;0.37;74.50
57086;BME280;42964;42.910;23.792;2023-02-13T00:29:05;99562.09;;;0.45;74.30
57086;BME280;42964;42.910;23.792;2023-02-13T00:34:04;99572.63;;;0.50;74.17
57086;BME280;42964;42.910;23.792;2023-02-13T00:39:03;99560.72;;;0.51;74.21
57086;BME280;42964;42.910;23.792;2023-02-13T00:44:02;99564.34;;;0.54;74.54
57086;BME280;42964;42.910;23.792;2023-02-13T00:49:01;99518.75;;;0.34;74.07
57086;BME280;42964;42.910;23.792;2023-02-13T00:54:00;99566.47;;;0.60;73.96
57086;BME280;42964;42.910;23.792;2023-02-13T00:58:59;99559.88;;;0.63;73.75
57086;BME280;42964;42.910;23.792;2023-02-13T01:03:58;99558.81;;;0.60;73.83
57086;BME280;42964;42.910;23.792;2023-02-13T01:08:57;99567.81;;;0.55;74.01
57086;BME280;42964;42.910;23.792;2023-02-13T01:13:56;99436.53;;;-0.24;74.20
57086;BME280;42964;42.910;23.792;2023-02-13T01:18:55;99581.31;;;0.65;74.12
57086;BME280;42964;42.910;23.792;2023-02-13T01:23:53;99500.13;;;0.23;73.97
57086;BME280;42964;42.910;23.792;2023-02-13T01:28:53;99578.00;;;0.66;74.32
57086;BME280;42964;42.910;23.792;2023-02-13T01:33:55;99518.81;;;0.35;73.84
57086;BME280;42964;42.910;23.792;2023-02-13T01:38:56;99568.66;;;0.67;74.03
57086;BME280;42964;42.910;23.792;2023-02-13T01:43:59;99565.28;;;0.68;74.47
57086;BME280;42964;42.910;23.792;2023-02-13T01:49:20;99562.16;;;0.72;73.89
57086;BME280;42964;42.910;23.792;2023-02-13T01:54:25;99572.81;;;0.78;73.30
57086;BME280;42964;42.910;23.792;2023-02-13T01:59:33;99567.78;;;0.80;73.78
57086;BME280;42964;42.910;23.792;2023-02-13T02:04:37;99576.13;;;0.77;73.36
57086;BME280;42964;42.910;23.792;2023-02-13T02:09:39;99569.47;;;0.79;73.74
57086;BME280;42964;42.910;23.792;2023-02-13T02:14:39;99571.25;;;0.80;73.23
57086;BME280;42964;42.910;23.792;2023-02-13T02:19:47;99560.72;;;0.76;73.53
57086;BME280;42964;42.910;23.792;2023-02-13T02:35:36;99581.66;;;0.83;73.05
57086;BME280;42964;42.910;23.792;2023-02-13T02:47:28;99565.72;;;0.74;72.78
57086;BME280;42964;42.910;23.792;2023-02-13T02:58:14;99556.44;;;0.63;72.71
57086;BME280;42964;42.910;23.792;2023-02-13T03:03:34;99540.13;;;0.36;72.65
57086;BME280;42964;42.910;23.792;2023-02-13T03:08:55;99566.50;;;0.23;73.78
57086;BME280;42964;42.910;23.792;2023-02-13T03:14:17;99556.94;;;-0.05;74.53
57086;BME280;42964;42.910;23.792;2023-02-13T03:35:52;99573.19;;;-0.51;75.47
57086;BME280;42964;42.910;23.792;2023-02-13T03:46:39;99571.31;;;-0.66;75.54
57086;BME280;42964;42.910;23.792;2023-02-13T03:51:56;99582.41;;;-0.77;76.21
57086;BME280;42964;42.910;23.792;2023-02-13T03:56:57;99562.59;;;-0.81;76.05
57086;BME280;42964;42.910;23.792;2023-02-13T04:02:21;99569.91;;;-0.86;76.25
57086;BME280;42964;42.910;23.792;2023-02-13T04:07:23;99566.09;;;-0.91;75.68
57086;BME280;42964;42.910;23.792;2023-02-13T04:18:01;99546.81;;;-1.23;76.42
57086;BME280;42964;42.910;23.792;2023-02-13T04:23:06;99577.84;;;-1.16;76.41
57086;BME280;42964;42.910;23.792;2023-02-13T04:28:05;99562.19;;;-1.33;77.31
57086;BME280;42964;42.910;23.792;2023-02-13T04:33:04;99573.69;;;-1.26;77.41
57086;BME280;42964;42.910;23.792;2023-02-13T04:38:03;99563.28;;;-1.29;76.94
57086;BME280;42964;42.910;23.792;2023-02-13T04:43:02;99560.69;;;-1.41;78.00
57086;BME280;42964;42.910;23.792;2023-02-13T04:48:01;99572.25;;;-1.34;77.15
57086;BME280;42964;42.910;23.792;2023-02-13T04:53:00;99574.44;;;-1.39;77.82
57086;BME280;42964;42.910;23.792;2023-02-13T04:57:59;99580.06;;;-1.43;77.12
57086;BME280;42964;42.910;23.792;2023-02-13T05:03:05;99588.81;;;-1.51;77.34
57086;BME280;42964;42.910;23.792;2023-02-13T05:08:05;99592.88;;;-1.53;78.16
57086;BME280;42964;42.910;23.792;2023-02-13T05:13:05;99594.72;;;-1.62;78.90
57086;BME280;42964;42.910;23.792;2023-02-13T05:18:04;99602.66;;;-1.70;78.69
57086;BME280;42964;42.910;23.792;2023-02-13T05:23:03;99606.81;;;-1.82;79.22
57086;BME280;42964;42.910;23.792;2023-02-13T05:28:20;99612.53;;;-1.85;78.93
57086;BME280;42964;42.910;23.792;2023-02-13T05:33:37;99611.41;;;-1.88;79.12
57086;BME280;42964;42.910;23.792;2023-02-13T05:38:36;99600.66;;;-1.96;79.16
57086;BME280;42964;42.910;23.792;2023-02-13T05:43:35;99605.38;;;-1.78;78.13
57086;BME280;42964;42.910;23.792;2023-02-13T05:48:34;99611.63;;;-1.75;78.43
57086;BME280;42964;42.910;23.792;2023-02-13T05:53:34;99615.41;;;-1.70;78.40
57086;BME280;42964;42.910;23.792;2023-02-13T05:58:33;99625.94;;;-1.65;78.35
57086;BME280;42964;42.910;23.792;2023-02-13T06:03:32;99621.94;;;-1.61;78.05
57086;BME280;42964;42.910;23.792;2023-02-13T06:08:31;99626.72;;;-1.54;78.06
57086;BME280;42964;42.910;23.792;2023-02-13T06:13:30;99629.75;;;-1.48;78.24
57086;BME280;42964;42.910;23.792;2023-02-13T06:18:29;99616.25;;;-1.47;77.75
57086;BME280;42964;42.910;23.792;2023-02-13T06:23:28;99634.81;;;-1.26;77.65
57086;BME280;42964;42.910;23.792;2023-02-13T06:28:27;99637.41;;;-1.14;78.45
57086;BME280;42964;42.910;23.792;2023-02-13T06:33:26;99640.06;;;-1.13;77.94
57086;BME280;42964;42.910;23.792;2023-02-13T06:38:25;99532.28;;;-1.69;77.73
57086;BME280;42964;42.910;23.792;2023-02-13T06:43:24;99446.38;;;-2.17;78.07
57086;BME280;42964;42.910;23.792;2023-02-13T06:48:23;99639.25;;;-0.90;78.81
57086;BME280;42964;42.910;23.792;2023-02-13T06:53:23;99637.91;;;-0.85;78.04
57086;BME280;42964;42.910;23.792;2023-02-13T06:58:24;99620.41;;;-0.92;78.86
57086;BME280;42964;42.910;23.792;2023-02-13T07:03:23;99640.59;;;-0.71;78.47
57086;BME280;42964;42.910;23.792;2023-02-13T07:08:22;99627.31;;;-0.67;78.54
57086;BME280;42964;42.910;23.792;2023-02-13T07:13:21;99634.72;;;-0.47;78.94
57086;BME280;42964;42.910;23.792;2023-02-13T07:18:20;99640.84;;;-0.21;78.18
57086;BME280;42964;42.910;23.792;2023-02-13T07:23:19;99648.13;;;-0.02;77.82
57086;BME280;42964;42.910;23.792;2023-02-13T07:28:18;99649.44;;;0.16;77.29
57086;BME280;42964;42.910;23.792;2023-02-13T07:33:17;99620.81;;;0.09;77.25
57086;BME280;42964;42.910;23.792;2023-02-13T07:38:18;99635.16;;;0.43;76.81
57086;BME280;42964;42.910;23.792;2023-02-13T07:43:17;99627.41;;;0.67;75.87
57086;BME280;42964;42.910;23.792;2023-02-13T07:48:16;99625.31;;;0.86;75.04
57086;BME280;42964;42.910;23.792;2023-02-13T07:53:15;99623.69;;;1.00;73.99
57086;BME280;42964;42.910;23.792;2023-02-13T07:58:14;99629.91;;;1.17;72.62
57086;BME280;42964;42.910;23.792;2023-02-13T08:03:13;99626.09;;;1.24;72.82
57086;BME280;42964;42.910;23.792;2023-02-13T08:08:12;99626.41;;;1.42;72.95
57086;BME280;42964;42.910;23.792;2023-02-13T08:13:12;99626.00;;;1.36;73.63
57086;BME280;42964;42.910;23.792;2023-02-13T08:18:12;99620.69;;;1.59;72.94
57086;BME280;42964;42.910;23.792;2023-02-13T08:23:11;99617.97;;;1.69;71.80
57086;BME280;42964;42.910;23.792;2023-02-13T08:28:10;99614.56;;;1.97;70.53
57086;BME280;42964;42.910;23.792;2023-02-13T08:33:09;99618.63;;;2.07;70.38
57086;BME280;42964;42.910;23.792;2023-02-13T08:38:08;99616.84;;;2.34;70.01
57086;BME280;42964;42.910;23.792;2023-02-13T08:43:07;99571.56;;;2.33;70.65
57086;BME280;42964;42.910;23.792;2023-02-13T08:48:06;99599.13;;;2.80;70.85
57086;BME280;42964;42.910;23.792;2023-02-13T08:53:05;99605.47;;;3.15;69.62
57086;BME280;42964;42.910;23.792;2023-02-13T08:58:04;99599.88;;;3.22;67.16
57086;BME280;42964;42.910;23.792;2023-02-13T09:03:03;99600.94;;;3.40;65.83
57086;BME280;42964;42.910;23.792;2023-02-13T09:08:02;99603.75;;;3.60;64.89
57086;BME280;42964;42.910;23.792;2023-02-13T09:13:01;99589.94;;;3.58;64.27
57086;BME280;42964;42.910;23.792;2023-02-13T09:18:00;99594.78;;;3.68;62.50
57086;BME280;42964;42.910;23.792;2023-02-13T09:22:59;99596.09;;;3.76;63.02
57086;BME280;42964;42.910;23.792;2023-02-13T09:27:58;99590.22;;;4.10;61.56
57086;BME280;42964;42.910;23.792;2023-02-13T09:32:57;99590.25;;;4.43;61.16
57086;BME280;42964;42.910;23.792;2023-02-13T09:37:59;99569.88;;;4.62;59.40
57086;BME280;42964;42.910;23.792;2023-02-13T09:43:17;99540.63;;;4.60;58.45
57086;BME280;42964;42.910;23.792;2023-02-13T09:48:32;99556.00;;;4.93;57.67
57086;BME280;42964;42.910;23.792;2023-02-13T09:53:32;99545.94;;;5.14;57.44
57086;BME280;42964;42.910;23.792;2023-02-13T09:58:48;99531.00;;;5.25;56.75
57086;BME280;42964;42.910;23.792;2023-02-13T10:19:56;99486.59;;;5.84;53.94
57086;BME280;42964;42.910;23.792;2023-02-13T10:25:00;99480.66;;;6.05;53.64
57086;BME280;42964;42.910;23.792;2023-02-13T10:40:18;99453.03;;;6.62;52.35
57086;BME280;42964;42.910;23.792;2023-02-13T10:50:42;99441.19;;;6.67;50.64
57086;BME280;42964;42.910;23.792;2023-02-13T11:01:07;99433.72;;;6.94;49.55
57086;BME280;42964;42.910;23.792;2023-02-13T11:06:11;99422.91;;;6.82;48.51
57086;BME280;42964;42.910;23.792;2023-02-13T11:11:39;99415.16;;;7.03;48.49
57086;BME280;42964;42.910;23.792;2023-02-13T11:21:46;99377.31;;;7.03;47.25
57086;BME280;42964;42.910;23.792;2023-02-13T11:26:50;99399.91;;;7.54;47.62
57086;BME280;42964;42.910;23.792;2023-02-13T11:32:23;99384.38;;;7.53;46.44
57086;BME280;42964;42.910;23.792;2023-02-13T11:37:28;99379.91;;;7.73;46.24
57086;BME280;42964;42.910;23.792;2023-02-13T11:42:35;99369.81;;;7.79;45.48
57086;BME280;42964;42.910;23.792;2023-02-13T11:47:37;99368.94;;;7.78;45.48
57086;BME280;42964;42.910;23.792;2023-02-13T11:52:37;99358.06;;;8.13;43.83
57086;BME280;42964;42.910;23.792;2023-02-13T11:57:36;99355.31;;;8.32;44.12
57086;BME280;42964;42.910;23.792;2023-02-13T12:02:47;99344.75;;;8.26;43.89
57086;BME280;42964;42.910;23.792;2023-02-13T12:07:48;99344.75;;;8.26;43.01
57086;BME280;42964;42.910;23.792;2023-02-13T12:18:01;99327.31;;;8.46;41.89
57086;BME280;42964;42.910;23.792;2023-02-13T12:28:19;99319.34;;;8.67;42.21
57086;BME280;42964;42.910;23.792;2023-02-13T12:49:02;99296.53;;;8.82;40.97
57086;BME280;42964;42.910;23.792;2023-02-13T13:25:45;99262.44;;;9.56;39.39
57086;BME280;42964;42.910;23.792;2023-02-13T13:30:46;99224.94;;;9.43;39.86
57086;BME280;42964;42.910;23.792;2023-02-13T13:51:35;99182.47;;;9.71;38.21
57086;BME280;42964;42.910;23.792;2023-02-13T14:07:22;99223.28;;;10.13;38.82
57086;BME280;42964;42.910;23.792;2023-02-13T14:22:44;99221.91;;;9.60;39.20
57086;BME280;42964;42.910;23.792;2023-02-13T14:27:43;99212.19;;;9.51;39.27
57086;BME280;42964;42.910;23.792;2023-02-13T14:32:44;99221.28;;;9.35;39.87
57086;BME280;42964;42.910;23.792;2023-02-13T14:37:51;99221.69;;;9.20;40.41
57086;BME280;42964;42.910;23.792;2023-02-13T14:43:26;99220.34;;;9.03;40.18
57086;BME280;42964;42.910;23.792;2023-02-13T14:48:36;99191.84;;;9.03;40.84
57086;BME280;42964;42.910;23.792;2023-02-13T14:53:50;99191.84;;;9.03;40.19
57086;BME280;42964;42.910;23.792;2023-02-13T14:59:39;99208.91;;;9.26;40.34
57086;BME280;42964;42.910;23.792;2023-02-13T15:04:29;99183.59;;;9.16;40.23
57086;BME280;42964;42.910;23.792;2023-02-13T15:09:36;99154.56;;;8.96;39.79
57086;BME280;42964;42.910;23.792;2023-02-13T15:14:39;99199.38;;;9.25;40.05
57086;BME280;42964;42.910;23.792;2023-02-13T15:19:43;99204.81;;;9.03;41.40
57086;BME280;42964;42.910;23.792;2023-02-13T15:24:47;99218.94;;;8.85;42.22
57086;BME280;42964;42.910;23.792;2023-02-13T15:29:59;99158.53;;;8.26;42.70
57086;BME280;42964;42.910;23.792;2023-02-13T15:34:59;99213.47;;;8.19;43.77
57086;BME280;42964;42.910;23.792;2023-02-13T15:40:31;99214.69;;;7.77;44.63
57086;BME280;42964;42.910;23.792;2023-02-13T15:45:31;99218.59;;;7.40;45.24
57086;BME280;42964;42.910;23.792;2023-02-13T15:50:33;99220.84;;;7.07;46.08
57086;BME280;42964;42.910;23.792;2023-02-13T15:55:33;99229.75;;;6.69;47.28
57086;BME280;42964;42.910;23.792;2023-02-13T16:00:36;99223.94;;;6.52;47.28
57086;BME280;42964;42.910;23.792;2023-02-13T16:05:38;99228.19;;;6.29;48.57
57086;BME280;42964;42.910;23.792;2023-02-13T16:10:38;99225.94;;;5.94;48.42
57086;BME280;42964;42.910;23.792;2023-02-13T16:15:41;99237.94;;;5.73;49.44
57086;BME280;42964;42.910;23.792;2023-02-13T16:20:41;99233.44;;;5.48;50.73
57086;BME280;42964;42.910;23.792;2023-02-13T16:25:40;99243.41;;;5.40;51.21
57086;BME280;42964;42.910;23.792;2023-02-13T16:30:40;99246.34;;;5.09;52.47
57086;BME280;42964;42.910;23.792;2023-02-13T16:35:43;99250.03;;;4.96;52.87
57086;BME280;42964;42.910;23.792;2023-02-13T16:40:43;99249.56;;;4.67;54.36
57086;BME280;42964;42.910;23.792;2023-02-13T16:45:42;99244.66;;;4.54;54.90
57086;BME280;42964;42.910;23.792;2023-02-13T16:50:41;99254.13;;;4.37;55.41
57086;BME280;42964;42.910;23.792;2023-02-13T16:55:40;99256.88;;;4.22;55.88
57086;BME280;42964;42.910;23.792;2023-02-13T17:00:39;99267.47;;;4.12;55.73
57086;BME280;42964;42.910;23.792;2023-02-13T17:05:38;99262.06;;;4.06;56.40
57086;BME280;42964;42.910;23.792;2023-02-13T17:10:38;99277.03;;;3.97;56.28
57086;BME280;42964;42.910;23.792;2023-02-13T17:15:45;99264.97;;;3.78;56.52
57086;BME280;42964;42.910;23.792;2023-02-13T17:20:45;99266.94;;;3.83;56.56
57086;BME280;42964;42.910;23.792;2023-02-13T17:25:44;99266.56;;;3.76;57.11
57086;BME280;42964;42.910;23.792;2023-02-13T17:30:52;99261.53;;;3.44;57.67
57086;BME280;42964;42.910;23.792;2023-02-13T17:35:52;99212.66;;;3.09;57.88
57086;BME280;42964;42.910;23.792;2023-02-13T17:40:52;99262.84;;;3.20;58.50
57086;BME280;42964;42.910;23.792;2023-02-13T17:45:51;99253.69;;;3.09;59.28
57086;BME280;42964;42.910;23.792;2023-02-13T17:50:50;99273.72;;;2.99;59.51
57086;BME280;42964;42.910;23.792;2023-02-13T17:55:50;99284.63;;;2.95;59.67
57086;BME280;42964;42.910;23.792;2023-02-13T18:00:49;99272.28;;;2.88;59.99
57086;BME280;42964;42.910;23.792;2023-02-13T18:05:48;99269.94;;;2.76;60.62
57086;BME280;42964;42.910;23.792;2023-02-13T18:10:47;99270.16;;;2.65;61.05
57086;BME280;42964;42.910;23.792;2023-02-13T18:15:46;99256.41;;;2.48;61.41
57086;BME280;42964;42.910;23.792;2023-02-13T18:20:45;99282.03;;;2.48;61.81
57086;BME280;42964;42.910;23.792;2023-02-13T18:25:44;99283.31;;;2.40;61.95
57086;BME280;42964;42.910;23.792;2023-02-13T18:30:43;99285.63;;;2.35;62.06
57086;BME280;42964;42.910;23.792;2023-02-13T18:35:42;99275.81;;;2.28;61.91
57086;BME280;42964;42.910;23.792;2023-02-13T18:40:41;99279.97;;;2.26;62.58
57086;BME280;42964;42.910;23.792;2023-02-13T18:45:40;99260.38;;;2.11;62.38
57086;BME280;42964;42.910;23.792;2023-02-13T18:50:42;99277.06;;;2.20;63.15
57086;BME280;42964;42.910;23.792;2023-02-13T18:55:41;99266.91;;;2.06;63.45
57086;BME280;42964;42.910;23.792;2023-02-13T19:00:40;99268.88;;;1.95;64.39
57086;BME280;42964;42.910;23.792;2023-02-13T19:05:39;99269.91;;;1.84;65.33
57086;BME280;42964;42.910;23.792;2023-02-13T19:10:39;99279.41;;;1.57;66.18
57086;BME280;42964;42.910;23.792;2023-02-13T19:15:38;99256.53;;;1.30;66.96
57086;BME280;42964;42.910;23.792;2023-02-13T19:20:37;99277.38;;;1.37;67.30
57086;BME280;42964;42.910;23.792;2023-02-13T19:25:38;99278.72;;;1.17;68.15
57086;BME280;42964;42.910;23.792;2023-02-13T19:30:37;99271.75;;;1.14;68.18
57086;BME280;42964;42.910;23.792;2023-02-13T19:35:36;99273.94;;;1.08;68.29
57086;BME280;42964;42.910;23.792;2023-02-13T19:40:35;99265.38;;;1.07;68.66
57086;BME280;42964;42.910;23.792;2023-02-13T19:45:34;99229.41;;;0.76;68.92
57086;BME280;42964;42.910;23.792;2023-02-13T19:50:33;99275.31;;;1.03;68.86
57086;BME280;42964;42.910;23.792;2023-02-13T19:55:33;99274.56;;;1.04;69.41
57086;BME280;42964;42.910;23.792;2023-02-13T20:00:32;99260.41;;;0.96;69.49
57086;BME280;42964;42.910;23.792;2023-02-13T20:05:37;99261.81;;;0.90;69.58
57086;BME280;42964;42.910;23.792;2023-02-13T20:10:37;99259.06;;;0.87;69.48
57086;BME280;42964;42.910;23.792;2023-02-13T20:15:40;99261.25;;;0.81;69.79
57086;BME280;42964;42.910;23.792;2023-02-13T20:20:39;99255.94;;;0.78;70.38
57086;BME280;42964;42.910;23.792;2023-02-13T20:25:38;99259.50;;;0.67;70.55
57086;BME280;42964;42.910;23.792;2023-02-13T20:30:41;99253.25;;;0.62;70.72
57086;BME280;42964;42.910;23.792;2023-02-13T20:35:40;99241.16;;;0.59;70.85
57086;BME280;42964;42.910;23.792;2023-02-13T20:40:39;99219.47;;;0.39;70.72
57086;BME280;42964;42.910;23.792;2023-02-13T20:45:38;99242.94;;;0.47;70.83
57086;BME280;42964;42.910;23.792;2023-02-13T20:50:37;99242.63;;;0.42;71.20
57086;BME280;42964;42.910;23.792;2023-02-13T20:55:36;99229.28;;;0.33;71.18
57086;BME280;42964;42.910;23.792;2023-02-13T21:00:35;99229.63;;;0.24;71.82
57086;BME280;42964;42.910;23.792;2023-02-13T21:05:34;99233.75;;;0.22;71.52
57086;BME280;42964;42.910;23.792;2023-02-13T21:10:36;99232.66;;;0.19;71.95
57086;BME280;42964;42.910;23.792;2023-02-13T21:15:36;99248.75;;;0.18;72.59
57086;BME280;42964;42.910;23.792;2023-02-13T21:20:35;99148.34;;;-0.49;72.17
57086;BME280;42964;42.910;23.792;2023-02-13T21:25:34;99244.72;;;-0.05;73.37
57086;BME280;42964;42.910;23.792;2023-02-13T21:30:34;99246.56;;;-0.16;73.91
57086;BME280;42964;42.910;23.792;2023-02-13T21:35:33;99237.06;;;-0.19;73.44
57086;BME280;42964;42.910;23.792;2023-02-13T21:40:32;99218.50;;;-0.16;73.68
57086;BME280;42964;42.910;23.792;2023-02-13T21:45:31;99216.75;;;-0.17;74.36
57086;BME280;42964;42.910;23.792;2023-02-13T21:50:30;99206.25;;;-0.22;73.82
57086;BME280;42964;42.910;23.792;2023-02-13T21:55:29;99213.19;;;-0.32;75.07
57086;BME280;42964;42.910;23.792;2023-02-13T22:00:30;99192.69;;;-0.47;74.37
57086;BME280;42964;42.910;23.792;2023-02-13T22:05:29;99186.78;;;-0.60;75.27
57086;BME280;42964;42.910;23.792;2023-02-13T22:10:27;99181.97;;;-0.68;75.68
57086;BME280;42964;42.910;23.792;2023-02-13T22:15:26;99167.44;;;-0.83;75.22
57086;BME280;42964;42.910;23.792;2023-02-13T22:20:25;99179.97;;;-0.72;75.71
57086;BME280;42964;42.910;23.792;2023-02-13T22:25:24;99185.06;;;-0.86;76.33
57086;BME280;42964;42.910;23.792;2023-02-13T22:30:23;99185.84;;;-0.87;76.08
57086;BME280;42964;42.910;23.792;2023-02-13T22:35:22;99180.53;;;-0.90;76.44
57086;BME280;42964;42.910;23.792;2023-02-13T22:40:21;99172.91;;;-0.90;76.00
57086;BME280;42964;42.910;23.792;2023-02-13T22:45:19;99171.03;;;-0.92;76.46
57086;BME280;42964;42.910;23.792;2023-02-13T22:50:18;99162.28;;;-0.96;76.46
57086;BME280;42964;42.910;23.792;2023-02-13T22:55:17;99173.28;;;-0.97;76.83
57086;BME280;42964;42.910;23.792;2023-02-13T23:00:16;99164.63;;;-0.99;76.74
57086;BME280;42964;42.910;23.792;2023-02-13T23:05:16;99176.00;;;-0.94;76.56
57086;BME280;42964;42.910;23.792;2023-02-13T23:10:16;99136.91;;;-1.33;76.81
57086;BME280;42964;42.910;23.792;2023-02-13T23:15:16;99150.16;;;-1.25;76.62
57086;BME280;42964;42.910;23.792;2023-02-13T23:20:15;99175.97;;;-1.07;76.92
57086;BME280;42964;42.910;23.792;2023-02-13T23:25:15;99182.41;;;-1.12;77.03
57086;BME280;42964;42.910;23.792;2023-02-13T23:30:17;99189.59;;;-1.32;77.33
57086;BME280;42964;42.910;23.792;2023-02-13T23:35:16;99190.72;;;-1.40;77.42
57086;BME280;42964;42.910;23.792;2023-02-13T23:40:15;99184.66;;;-1.42;77.29
57086;BME280;42964;42.910;23.792;2023-02-13T23:45:14;99126.88;;;-1.80;77.31
57086;BME280;42964;42.910;23.792;2023-02-13T23:50:13;99177.47;;;-1.48;77.29
57086;BME280;42964;42.910;23.792;2023-02-13T23:55:12;99183.75;;;-1.43;77.87
